createdAt,value
2022-08-03T00:01:49.870Z,7.35
2022-08-03T00:04:16.336Z,8.25
2022-08-03T00:06:42.794Z,8.02
2022-08-03T00:09:10.577Z,9.45
2022-08-03T00:11:37.251Z,10.40
2022-08-03T00:14:05.898Z,7.18
2022-08-03T00:16:32.771Z,9.20
2022-08-03T00:19:00.821Z,7.43
2022-08-03T00:21:28.307Z,4.88
2022-08-03T00:23:54.731Z,5.37
2022-08-03T00:26:21.490Z,5.55
2022-08-03T00:28:48.569Z,6.35
2022-08-03T00:31:15.071Z,9.18
2022-08-03T00:33:58.782Z,5.43
2022-08-03T00:36:28.466Z,6.85
2022-08-03T00:38:55.544Z,8.27
2022-08-03T00:41:22.274Z,8.63
2022-08-03T00:43:48.668Z,5.75
2022-08-03T00:46:20.532Z,8.60
2022-08-03T00:48:49.015Z,6.93
2022-08-03T00:51:15.514Z,8.40
2022-08-03T00:53:41.876Z,8.50
2022-08-03T00:56:08.420Z,9.00
2022-08-03T00:58:34.887Z,7.80
2022-08-03T01:01:01.443Z,6.53
2022-08-03T01:03:27.939Z,8.75
2022-08-03T01:06:18.245Z,10.50
2022-08-03T01:09:12.224Z,6.60
2022-08-03T01:11:59.882Z,4.18
2022-08-03T01:14:53.177Z,7.30
2022-08-03T01:17:28.947Z,8.02
2022-08-03T01:19:57.941Z,9.13
2022-08-03T01:23:00.980Z,8.48
2022-08-03T01:25:45.988Z,5.55
2022-08-03T01:28:25.367Z,8.68
2022-08-03T01:30:54.678Z,10.18
2022-08-03T01:33:26.012Z,7.18
2022-08-03T01:35:59.513Z,8.85
2022-08-03T01:38:29.276Z,10.57
2022-08-03T01:40:57.014Z,7.72
2022-08-03T01:43:55.138Z,5.90
2022-08-03T01:46:16.329Z,6.40
2022-08-03T01:48:44.739Z,10.57
2022-08-03T01:51:11.957Z,8.20
2022-08-03T01:53:44.068Z,8.43
2022-08-03T01:56:12.500Z,10.02
2022-08-03T01:58:41.430Z,7.65
2022-08-03T02:01:09.998Z,9.82
2022-08-03T02:03:59.668Z,8.27
2022-08-03T02:07:00.730Z,8.48
2022-08-03T02:09:15.675Z,14.23
2022-08-03T02:11:43.570Z,12.50
2022-08-03T02:14:11.177Z,8.20
2022-08-03T02:16:38.186Z,11.48
2022-08-03T02:19:07.245Z,11.77
2022-08-03T02:21:57.005Z,7.28
2022-08-03T02:24:23.413Z,8.10
2022-08-03T02:26:53.051Z,10.25
2022-08-03T02:29:40.071Z,8.98
2022-08-03T02:32:12.348Z,8.48
2022-08-03T02:34:42.037Z,7.72
2022-08-03T02:37:10.385Z,8.75
2022-08-03T02:39:37.733Z,5.53
2022-08-03T02:42:08.566Z,5.67
2022-08-03T02:44:36.305Z,6.60
2022-08-03T02:47:08.202Z,8.63
2022-08-03T02:49:50.515Z,5.75
2022-08-03T02:52:20.728Z,5.78
2022-08-03T02:54:51.024Z,9.27
2022-08-03T02:57:19.371Z,9.27
2022-08-03T02:59:47.022Z,7.60
2022-08-03T03:02:15.714Z,7.03
2022-08-03T03:04:54.966Z,6.97
2022-08-03T03:07:31.288Z,7.70
2022-08-03T03:10:07.586Z,6.45
2022-08-03T03:12:37.039Z,6.78
2022-08-03T03:15:05.445Z,9.93
2022-08-03T03:17:33.843Z,5.72
2022-08-03T03:20:00.923Z,8.00
2022-08-03T03:22:28.776Z,5.43
2022-08-03T03:24:56.064Z,6.32
2022-08-03T03:27:23.156Z,9.67
2022-08-03T03:29:49.937Z,9.60
2022-08-03T03:32:17.199Z,8.38
2022-08-03T03:34:44.328Z,6.20
2022-08-03T03:37:10.843Z,7.32
2022-08-03T03:39:37.258Z,6.32
2022-08-03T03:42:04.957Z,8.38
2022-08-03T03:44:31.509Z,9.15
2022-08-03T03:46:58.431Z,8.00
2022-08-03T03:49:25.000Z,8.77
2022-08-03T03:51:55.416Z,6.63
2022-08-03T03:54:21.975Z,9.52
2022-08-03T03:56:52.141Z,5.90
2022-08-03T03:59:18.668Z,4.85
2022-08-03T04:01:45.622Z,5.97
2022-08-03T04:04:30.855Z,10.57
2022-08-03T04:07:15.608Z,6.78
2022-08-03T04:10:14.347Z,5.00
2022-08-03T04:12:49.934Z,6.32
2022-08-03T04:15:20.561Z,5.10
2022-08-03T04:17:50.148Z,7.10
2022-08-03T04:20:21.131Z,7.25
2022-08-03T04:22:50.990Z,5.55
2022-08-03T04:25:20.139Z,5.50
2022-08-03T04:28:29.243Z,9.10
2022-08-03T04:30:37.532Z,4.72
2022-08-03T04:33:04.480Z,5.57
2022-08-03T04:36:01.887Z,5.55
2022-08-03T04:38:21.179Z,7.15
2022-08-03T04:40:48.177Z,7.63
2022-08-03T04:43:16.624Z,5.53
2022-08-03T04:45:43.795Z,11.75
2022-08-03T04:48:10.244Z,8.68
2022-08-03T04:50:36.947Z,8.25
2022-08-03T04:53:03.543Z,9.40
2022-08-03T04:55:31.515Z,8.52
2022-08-03T04:58:02.437Z,6.50
2022-08-03T05:00:29.346Z,7.68
2022-08-03T05:02:56.264Z,7.63
2022-08-03T05:05:23.203Z,7.30
2022-08-03T05:07:50.238Z,8.98
2022-08-03T05:10:17.585Z,8.27
2022-08-03T05:12:46.228Z,12.50
2022-08-03T05:15:13.144Z,9.43
2022-08-03T05:17:40.011Z,11.05
2022-08-03T05:20:06.985Z,14.35
2022-08-03T05:22:33.487Z,13.02
2022-08-03T05:25:01.359Z,17.08
2022-08-03T05:27:27.744Z,12.52
2022-08-03T05:29:54.168Z,12.23
2022-08-03T05:32:20.726Z,11.55
2022-08-03T05:34:47.331Z,16.83
2022-08-03T05:37:13.834Z,13.32
2022-08-03T05:39:40.430Z,14.70
2022-08-03T05:42:06.878Z,13.25
2022-08-03T05:44:33.453Z,11.27
2022-08-03T05:46:59.830Z,11.55
2022-08-03T05:49:26.274Z,14.07
2022-08-03T05:52:00.374Z,15.35
2022-08-03T05:54:55.297Z,12.73
2022-08-03T05:57:23.643Z,11.38
2022-08-03T05:59:56.405Z,11.00
2022-08-03T06:02:28.545Z,13.65
2022-08-03T06:04:55.049Z,16.83
2022-08-03T06:07:21.571Z,10.10
2022-08-03T06:10:33.396Z,12.98
2022-08-03T06:12:36.075Z,14.85
2022-08-03T06:15:04.152Z,10.63
2022-08-03T06:17:37.213Z,11.00
2022-08-03T06:20:05.592Z,11.50
2022-08-03T06:22:31.985Z,12.52
2022-08-03T06:24:58.725Z,13.23
2022-08-03T06:27:37.173Z,11.32
2022-08-03T06:30:04.673Z,13.75
2022-08-03T06:32:31.071Z,12.15
2022-08-03T06:34:57.432Z,13.80
2022-08-03T06:37:24.503Z,11.40
2022-08-03T06:39:51.078Z,13.52
2022-08-03T06:42:17.704Z,12.25
2022-08-03T06:44:44.329Z,16.38
2022-08-03T06:47:10.772Z,16.83
2022-08-03T06:49:37.469Z,17.13
2022-08-03T06:52:06.947Z,24.05
2022-08-03T06:54:33.867Z,16.27
2022-08-03T06:57:00.787Z,20.35
2022-08-03T07:00:07.972Z,14.68
2022-08-03T07:02:19.096Z,11.88
2022-08-03T07:04:47.388Z,15.80
2022-08-03T07:07:14.057Z,16.08
2022-08-03T07:09:40.448Z,20.88
2022-08-03T07:12:08.323Z,13.68
2022-08-03T07:14:35.058Z,15.90
2022-08-03T07:17:01.480Z,8.38
2022-08-03T07:19:31.007Z,13.30
2022-08-03T07:22:00.182Z,19.00
2022-08-03T07:24:29.148Z,11.65
2022-08-03T07:26:55.586Z,14.82
2022-08-03T07:29:21.975Z,13.48
2022-08-03T07:31:48.393Z,15.90
2022-08-03T07:34:14.963Z,13.90
2022-08-03T07:36:41.340Z,13.32
2022-08-03T07:39:15.429Z,15.85
2022-08-03T07:41:44.413Z,14.63
2022-08-03T07:44:10.760Z,15.10
2022-08-03T07:46:37.490Z,9.75
2022-08-03T07:49:04.066Z,14.23
2022-08-03T07:51:30.434Z,12.00
2022-08-03T07:53:57.688Z,13.50
2022-08-03T07:56:27.268Z,13.13
2022-08-03T07:58:55.087Z,14.45
2022-08-03T08:01:22.485Z,15.40
2022-08-03T08:03:53.481Z,14.40
2022-08-03T08:06:20.816Z,14.52
2022-08-03T08:08:47.954Z,13.98
2022-08-03T08:11:14.426Z,10.45
2022-08-03T08:13:40.778Z,15.60
2022-08-03T08:16:07.309Z,13.65
2022-08-03T08:18:34.425Z,12.85
2022-08-03T08:21:03.111Z,15.27
2022-08-03T08:23:43.503Z,13.00
2022-08-03T08:26:11.766Z,19.98
2022-08-03T08:28:38.171Z,16.98
2022-08-03T08:31:04.576Z,19.15
2022-08-03T08:36:18.109Z,12.05
2022-08-03T08:38:45.241Z,20.15
2022-08-03T08:41:13.516Z,12.50
2022-08-03T08:43:40.732Z,13.85
2022-08-03T08:46:11.783Z,14.53
2022-08-03T08:48:42.051Z,18.02
2022-08-03T08:51:11.342Z,17.45
2022-08-03T08:53:41.462Z,15.32
2022-08-03T08:56:12.841Z,15.70
2022-08-03T08:58:44.177Z,16.58
2022-08-03T09:01:10.612Z,22.40
2022-08-03T09:03:37.349Z,15.57
2022-08-03T09:06:04.501Z,17.75
2022-08-03T09:08:32.579Z,13.48
2022-08-03T09:10:59.343Z,14.30
2022-08-03T09:13:26.309Z,15.05
2022-08-03T09:16:09.276Z,12.87
2022-08-03T09:18:35.674Z,19.15
2022-08-03T09:21:31.666Z,14.95
2022-08-03T09:24:03.188Z,16.00
2022-08-03T09:26:31.281Z,14.85
2022-08-03T09:29:04.900Z,20.05
2022-08-03T09:31:39.506Z,16.70
2022-08-03T09:34:12.786Z,17.00
2022-08-03T09:36:47.645Z,19.20
2022-08-03T09:39:40.924Z,14.10
2022-08-03T09:42:15.643Z,15.13
2022-08-03T09:44:44.463Z,14.98
2022-08-03T09:47:12.183Z,13.38
2022-08-03T09:52:38.765Z,18.40
2022-08-03T09:56:31.554Z,20.40
2022-08-03T09:58:11.322Z,15.73
2022-08-03T10:01:24.121Z,22.45
2022-08-03T10:04:03.624Z,14.88
2022-08-03T10:06:31.588Z,14.18
2022-08-03T10:09:13.039Z,17.10
2022-08-03T10:11:41.976Z,16.60
2022-08-03T10:14:18.730Z,14.38
2022-08-03T10:16:46.753Z,18.17
2022-08-03T10:19:15.003Z,14.73
2022-08-03T10:21:47.824Z,16.40
2022-08-03T10:24:16.884Z,17.55
2022-08-03T10:26:49.512Z,21.42
2022-08-03T10:29:27.124Z,14.55
2022-08-03T10:31:58.623Z,17.20
2022-08-03T10:34:35.133Z,19.10
2022-08-03T10:37:07.873Z,17.08
2022-08-03T10:39:35.943Z,19.15
2022-08-03T10:42:03.911Z,20.38
2022-08-03T10:44:40.203Z,13.55
2022-08-03T10:47:10.130Z,16.45
2022-08-03T10:49:37.224Z,20.15
2022-08-03T10:52:12.760Z,14.52
2022-08-03T10:55:07.303Z,20.67
2022-08-03T10:57:45.085Z,12.95
2022-08-03T11:00:17.752Z,14.68
2022-08-03T11:03:10.831Z,14.10
2022-08-03T11:05:40.027Z,13.98
2022-08-03T11:08:31.097Z,26.33
2022-08-03T11:11:00.931Z,12.27
2022-08-03T11:13:31.680Z,15.27
2022-08-03T11:16:02.382Z,15.55
2022-08-03T11:18:31.585Z,17.25
2022-08-03T11:21:00.184Z,19.57
2022-08-03T11:24:05.018Z,16.02
2022-08-03T11:26:34.434Z,20.30
2022-08-03T11:29:31.948Z,12.77
2022-08-03T11:31:58.646Z,16.10
2022-08-03T11:34:26.100Z,19.10
2022-08-03T11:37:22.798Z,16.05
2022-08-03T11:39:51.905Z,11.63
2022-08-03T11:42:24.452Z,17.95
2022-08-03T11:44:55.949Z,16.75
2022-08-03T11:47:24.287Z,15.20
2022-08-03T11:49:53.828Z,12.85
2022-08-03T11:52:27.033Z,11.55
2022-08-03T11:54:56.753Z,20.70
2022-08-03T11:59:11.241Z,15.07
2022-08-03T12:00:28.315Z,14.77
2022-08-03T12:02:56.844Z,11.20
2022-08-03T12:05:37.144Z,14.50
2022-08-03T12:08:06.618Z,12.65
2022-08-03T12:10:33.907Z,11.95
2022-08-03T12:13:01.811Z,14.35
2022-08-03T12:15:30.259Z,17.40
2022-08-03T12:17:58.124Z,14.38
2022-08-03T12:20:34.633Z,12.95
2022-08-03T12:23:04.414Z,14.57
2022-08-03T12:25:39.474Z,14.80
2022-08-03T12:28:37.291Z,15.20
2022-08-03T12:31:09.374Z,14.00
2022-08-03T12:34:02.692Z,14.45
2022-08-03T12:36:32.540Z,13.35
2022-08-03T12:39:04.853Z,14.55
2022-08-03T12:41:37.324Z,12.15
2022-08-03T12:44:05.850Z,14.77
2022-08-03T12:46:47.358Z,10.98
2022-08-03T12:49:16.934Z,15.75
2022-08-03T12:51:43.355Z,11.10
2022-08-03T12:54:34.441Z,11.98
2022-08-03T12:57:08.930Z,10.23
2022-08-03T12:59:52.882Z,11.57
2022-08-03T13:02:25.613Z,11.85
2022-08-03T13:04:53.963Z,8.80
2022-08-03T13:07:21.811Z,8.95
2022-08-03T13:09:53.050Z,8.40
2022-08-03T13:12:25.119Z,10.00
2022-08-03T13:15:00.981Z,7.10
2022-08-03T13:17:28.219Z,8.55
2022-08-03T13:19:54.689Z,13.10
2022-08-03T13:22:24.369Z,8.07
2022-08-03T13:24:53.276Z,8.30
2022-08-03T13:28:00.929Z,9.20
2022-08-03T13:30:08.090Z,7.60
2022-08-03T13:32:34.984Z,8.20
2022-08-03T13:35:02.737Z,11.25
2022-08-03T13:37:32.048Z,9.45
2022-08-03T13:40:02.870Z,7.97
2022-08-03T13:42:31.448Z,6.20
2022-08-03T13:44:58.862Z,7.32
2022-08-03T13:47:25.740Z,9.73
2022-08-03T13:49:54.297Z,8.38
2022-08-03T13:52:27.825Z,6.20
2022-08-03T13:54:54.270Z,6.55
2022-08-03T13:58:05.775Z,5.40
2022-08-03T14:00:07.981Z,8.60
2022-08-03T14:05:00.801Z,6.03
2022-08-03T14:07:27.172Z,4.85
2022-08-03T14:09:53.514Z,7.78
2022-08-03T14:12:19.881Z,4.43
2022-08-03T14:14:46.363Z,4.50
2022-08-03T14:17:12.724Z,5.73
2022-08-03T14:19:53.590Z,5.18
2022-08-03T14:22:21.186Z,8.02
2022-08-03T14:24:49.319Z,7.43
2022-08-03T14:27:16.075Z,8.20
2022-08-03T14:29:42.668Z,7.27
2022-08-03T14:32:12.566Z,6.57
2022-08-03T14:34:39.603Z,7.32
2022-08-03T14:37:06.009Z,5.90
2022-08-03T14:42:20.344Z,6.70
2022-08-03T14:44:47.059Z,4.32
2022-08-03T14:47:14.073Z,5.50
2022-08-03T14:50:32.675Z,5.03
2022-08-03T14:52:27.014Z,5.93
2022-08-03T14:54:53.409Z,10.33
2022-08-03T14:57:19.911Z,5.68
2022-08-03T14:59:55.759Z,3.17
2022-08-03T15:04:51.003Z,3.78
2022-08-03T15:07:17.454Z,5.37
2022-08-03T15:09:44.090Z,6.70
2022-08-03T15:12:10.472Z,6.93
2022-08-03T15:14:37.885Z,4.97
2022-08-03T15:17:05.280Z,11.15
2022-08-03T15:22:20.700Z,8.38
2022-08-03T15:24:51.652Z,4.53
2022-08-03T15:27:18.517Z,3.85
2022-08-03T15:30:08.168Z,5.45
2022-08-03T15:32:31.551Z,4.55
2022-08-03T15:34:58.012Z,7.53
2022-08-03T15:37:25.652Z,4.50
2022-08-03T15:39:59.537Z,7.93
2022-08-03T15:42:28.462Z,5.50
2022-08-03T15:44:54.910Z,5.53
2022-08-03T15:47:21.677Z,5.10
2022-08-03T15:49:48.320Z,5.57
2022-08-03T15:52:14.688Z,7.45
2022-08-03T15:54:41.066Z,9.27
2022-08-03T15:57:07.812Z,5.53
2022-08-03T15:59:34.225Z,6.82
2022-08-03T16:02:00.647Z,7.93
2022-08-03T16:04:27.348Z,3.15
2022-08-03T16:06:53.740Z,7.88
2022-08-03T16:09:24.325Z,5.57
2022-08-03T16:12:06.634Z,8.27
2022-08-03T16:14:51.289Z,7.80
2022-08-03T16:17:19.339Z,2.75
2022-08-03T16:19:46.067Z,7.57
2022-08-03T16:22:12.849Z,4.18
2022-08-03T16:24:40.896Z,4.53
2022-08-03T16:27:07.814Z,4.23
2022-08-03T16:29:44.677Z,5.07
2022-08-03T16:32:11.439Z,5.90
2022-08-03T16:34:39.203Z,6.75
2022-08-03T16:37:35.307Z,6.82
2022-08-03T16:39:53.278Z,9.00
2022-08-03T16:42:19.780Z,5.80
2022-08-03T16:44:46.162Z,4.33
2022-08-03T16:47:21.748Z,6.65
2022-08-03T16:49:54.593Z,6.05
2022-08-03T16:52:23.381Z,6.75
2022-08-03T16:57:56.382Z,9.05
2022-08-03T17:00:10.017Z,8.32
2022-08-03T17:02:37.191Z,5.07
2022-08-03T17:05:04.716Z,5.97
2022-08-03T17:07:31.322Z,5.95
2022-08-03T17:09:58.409Z,6.75
2022-08-03T17:12:26.785Z,5.82
2022-08-03T17:14:54.091Z,6.88
2022-08-03T17:17:29.616Z,9.18
2022-08-03T17:20:10.231Z,6.38
2022-08-03T17:22:45.774Z,9.15
2022-08-03T17:25:22.229Z,5.53
2022-08-03T17:31:22.864Z,7.13
2022-08-03T17:33:54.552Z,6.65
2022-08-03T17:36:22.590Z,7.05
2022-08-03T17:38:56.347Z,6.30
2022-08-03T17:41:23.511Z,7.13
2022-08-03T17:44:15.200Z,6.40
2022-08-03T17:46:39.132Z,10.48
2022-08-03T17:49:24.805Z,7.13
2022-08-03T17:51:57.842Z,4.70
2022-08-03T17:54:28.963Z,6.53
2022-08-03T17:57:21.904Z,7.60
2022-08-03T18:00:25.980Z,7.40
2022-08-03T18:03:20.892Z,9.88
2022-08-03T18:06:11.194Z,5.97
2022-08-03T18:08:46.399Z,8.40
2022-08-03T18:11:16.655Z,5.25
2022-08-03T18:14:16.284Z,6.25
2022-08-03T18:16:52.243Z,6.18
2022-08-03T18:19:20.577Z,9.98
2022-08-03T18:22:10.011Z,9.25
2022-08-03T18:24:37.832Z,7.07
2022-08-03T18:27:05.496Z,6.00
2022-08-03T18:29:35.402Z,6.63
2022-08-03T18:32:06.071Z,6.93
2022-08-03T18:34:36.753Z,4.05
2022-08-03T18:37:25.115Z,6.30
2022-08-03T18:39:55.562Z,4.53
2022-08-03T18:42:26.478Z,6.78
2022-08-03T18:44:56.240Z,7.60
2022-08-03T18:47:51.821Z,5.10
2022-08-03T18:50:28.185Z,5.38
2022-08-03T18:53:16.280Z,5.57
2022-08-03T18:56:01.990Z,7.15
2022-08-03T18:58:43.485Z,3.55
2022-08-03T19:01:57.870Z,8.77
2022-08-03T19:04:38.697Z,8.98
2022-08-03T19:07:09.347Z,6.93
2022-08-03T19:09:47.609Z,7.47
2022-08-03T19:12:30.552Z,6.35
2022-08-03T19:15:03.859Z,5.77
2022-08-03T19:17:36.010Z,8.07
2022-08-03T19:20:06.154Z,5.00
2022-08-03T19:25:02.237Z,7.18
2022-08-03T19:27:31.067Z,5.28
2022-08-03T19:30:03.766Z,9.18
2022-08-03T19:32:32.731Z,7.47
2022-08-03T19:35:02.081Z,9.07
2022-08-03T19:37:38.032Z,5.63
2022-08-03T19:40:10.283Z,9.38
2022-08-03T19:42:44.290Z,8.30
2022-08-03T19:45:15.245Z,5.03
2022-08-03T19:47:51.604Z,7.22
2022-08-03T19:50:20.276Z,5.40
2022-08-03T19:52:49.555Z,6.43
2022-08-03T19:55:17.667Z,6.57
2022-08-03T19:57:49.258Z,6.47
2022-08-03T20:00:19.871Z,3.85
2022-08-03T20:02:47.217Z,8.75
2022-08-03T20:05:18.675Z,4.47
2022-08-03T20:07:47.666Z,7.20
2022-08-03T20:10:16.487Z,7.00
2022-08-03T20:12:44.295Z,7.00
2022-08-03T20:15:11.296Z,5.30
2022-08-03T20:17:56.546Z,5.97
2022-08-03T20:23:13.102Z,6.75
2022-08-03T20:25:58.660Z,6.00
2022-08-03T20:28:50.681Z,3.17
2022-08-03T20:31:19.274Z,5.47
2022-08-03T20:33:49.459Z,6.93
2022-08-03T20:36:17.782Z,4.72
2022-08-03T20:38:47.344Z,7.60
2022-08-03T20:41:14.829Z,6.05
2022-08-03T20:43:41.673Z,4.78
2022-08-03T20:46:35.336Z,3.80
2022-08-03T20:48:57.155Z,6.75
2022-08-03T20:51:49.820Z,6.38
2022-08-03T20:54:23.079Z,10.18
2022-08-03T20:56:58.363Z,5.18
2022-08-03T20:59:34.826Z,6.55
2022-08-03T21:02:14.103Z,7.05
2022-08-03T21:04:47.427Z,4.85
2022-08-03T21:07:19.093Z,7.35
2022-08-03T21:09:57.141Z,6.13
2022-08-03T21:12:33.760Z,7.57
2022-08-03T21:15:04.224Z,7.03
2022-08-03T21:17:40.357Z,8.00
2022-08-03T21:20:09.798Z,8.25
2022-08-03T21:22:38.657Z,7.63
2022-08-03T21:25:09.163Z,4.70
2022-08-03T21:27:36.858Z,7.00
2022-08-03T21:30:07.777Z,5.88
2022-08-03T21:32:34.730Z,6.57
2022-08-03T21:35:01.361Z,6.47
2022-08-03T21:37:29.243Z,8.25
2022-08-03T21:42:23.920Z,6.10
2022-08-03T21:44:53.822Z,6.10
2022-08-03T21:47:24.202Z,7.03
2022-08-03T21:50:06.579Z,4.13
2022-08-03T21:52:41.976Z,4.85
2022-08-03T21:55:08.930Z,10.23
2022-08-03T21:57:51.345Z,11.30
2022-08-03T22:00:19.435Z,9.23
2022-08-03T22:02:54.848Z,9.30
2022-08-03T22:05:43.025Z,12.52
2022-08-03T22:08:13.401Z,8.27
2022-08-03T22:10:40.428Z,7.07
2022-08-03T22:13:06.815Z,6.07
2022-08-03T22:15:33.292Z,6.63
2022-08-03T22:18:03.412Z,7.28
2022-08-03T22:20:29.935Z,7.47
2022-08-03T22:23:00.073Z,5.45
2022-08-03T22:25:32.200Z,9.23
2022-08-03T22:28:04.923Z,5.88
2022-08-03T22:30:32.990Z,5.10
2022-08-03T22:33:01.302Z,5.63
2022-08-03T22:35:28.224Z,9.95
2022-08-03T22:37:57.115Z,9.07
2022-08-03T22:40:23.850Z,9.50
2022-08-03T22:42:51.956Z,8.45
2022-08-03T22:46:06.170Z,4.97
2022-08-03T22:48:08.163Z,8.32
2022-08-03T22:50:35.122Z,8.60
2022-08-03T22:53:01.711Z,9.30
2022-08-03T22:55:28.470Z,7.68
2022-08-03T22:57:55.882Z,7.25
2022-08-03T23:02:53.182Z,8.43
2022-08-03T23:06:00.802Z,8.43
2022-08-03T23:08:16.700Z,6.30
2022-08-03T23:10:47.220Z,10.45
2022-08-03T23:13:17.180Z,7.38
2022-08-03T23:15:50.906Z,10.80
2022-08-03T23:18:20.757Z,9.50
2022-08-03T23:20:51.394Z,5.57
2022-08-03T23:23:19.812Z,7.22
2022-08-03T23:25:49.525Z,8.52
2022-08-03T23:28:16.420Z,8.13
2022-08-03T23:30:44.474Z,6.78
2022-08-03T23:33:14.972Z,5.38
2022-08-03T23:36:20.178Z,7.40
2022-08-03T23:38:44.512Z,10.30
2022-08-03T23:41:12.520Z,7.20
2022-08-03T23:46:22.060Z,5.30
2022-08-03T23:48:48.541Z,7.10
2022-08-03T23:51:39.004Z,7.25
2022-08-03T23:54:23.324Z,15.55
2022-08-03T23:56:59.088Z,11.88
2022-08-03T23:59:47.067Z,6.22
